Time;durP1;ratioP1;P1;durP2;ratioP2;P2;SDS_P1;SDS_P2;PMS_P1;PMS_P2;Temp;Humidity;BMP_temperature;BMP_pressure;BME280_temperature;BME280_humidity;BME280_pressure;Samples;Min_cycle;Max_cycle;Signal;HPM_P1;HPM_P2
2022/07/29 09:39:47;;;;;;;0.00;0.00;;;35.00;53.30;;;;;;5083073;27;1428323;-73
2022/07/29 09:42:13;;;;;;;0.00;0.00;;;34.50;53.50;;;;;;5106185;28;20044;-73
2022/07/29 09:44:46;;;;;;;0.00;0.00;;;35.00;52.60;;;;;;5109885;28;20012;-73
2022/07/29 09:47:12;;;;;;;0.00;0.00;;;35.50;52.10;;;;;;5102275;28;20024;-74
2022/07/29 09:49:53;;;;;;;0.00;0.00;;;35.50;52.60;;;;;;5098373;28;20031;-73
2022/07/29 09:52:20;;;;;;;0.00;0.00;;;35.10;52.40;;;;;;5107228;28;20385;-72
2022/07/29 09:54:45;;;;;;;0.00;0.00;;;34.70;52.10;;;;;;5112960;28;20016;-73
2022/07/29 09:57:24;;;;;;;0.00;0.00;;;34.40;52.90;;;;;;5107722;28;20036;-73
2022/07/29 10:00:18;;;;;;;0.00;0.00;;;34.10;54.20;;;;;;5107291;28;20027;-73
2022/07/29 10:02:46;;;;;;;0.00;0.00;;;33.50;53.50;;;;;;5106890;28;20087;-73
2022/07/29 10:05:23;;;;;;;0.00;0.00;;;33.20;55.00;;;;;;5116961;28;20011;-72
2022/07/29 10:07:57;;;;;;;0.00;0.00;;;32.90;54.70;;;;;;5110647;28;20107;-71
2022/07/29 10:10:42;;;;;;;0.00;0.00;;;32.80;54.80;;;;;;5119326;28;20180;-72
2022/07/29 10:13:14;;;;;;;0.00;0.00;;;32.60;55.00;;;;;;5117553;28;20023;-72
2022/07/29 10:15:43;;;;;;;0.00;0.00;;;32.30;55.30;;;;;;5108988;28;20272;-74
2022/07/29 10:18:11;;;;;;;0.00;0.00;;;32.20;55.60;;;;;;5098726;28;20207;-74
2022/07/29 10:20:37;;;;;;;0.00;0.00;;;32.10;55.40;;;;;;5099154;28;20087;-74
2022/07/29 10:23:04;;;;;;;0.00;0.00;;;32.00;55.80;;;;;;5100527;28;20046;-73
2022/07/29 10:25:30;;;;;;;0.00;0.00;;;31.90;57.10;;;;;;5118914;28;20039;-74
2022/07/29 10:27:56;;;;;;;0.00;0.00;;;31.80;56.30;;;;;;5119264;28;20084;-76
2022/07/29 10:30:23;;;;;;;0.00;0.00;;;31.80;57.20;;;;;;5118604;28;20019;-77
2022/07/29 10:33:14;;;;;;;0.00;0.00;;;31.70;57.10;;;;;;5117811;28;20055;-77
2022/07/29 10:36:15;;;;;;;0.00;0.00;;;32.30;56.30;;;;;;5119127;28;20019;-78
2022/07/29 10:38:53;;;;;;;0.00;0.00;;;32.80;54.50;;;;;;5104574;28;20052;-77
2022/07/29 10:41:46;;;;;;;0.00;0.00;;;32.90;55.20;;;;;;5110619;28;20020;-78
2022/07/29 10:44:30;;;;;;;0.00;0.00;;;32.80;55.30;;;;;;5109516;28;20251;-78
2022/07/29 10:46:56;;;;;;;0.00;0.00;;;32.90;55.20;;;;;;5111438;28;20016;-78
2022/07/29 10:49:27;;;;;;;0.00;0.00;;;33.60;54.80;;;;;;5101216;28;20048;-77
2022/07/29 10:51:55;;;;;;;0.00;0.00;;;35.00;53.00;;;;;;5093665;28;20029;-78
2022/07/29 10:57:19;;;;;;;0.00;0.00;;;37.90;49.60;;;;;;5098838;28;20012;-77
2022/07/29 11:00:09;;;;;;;0.00;0.00;;;38.90;48.20;;;;;;5095718;28;20291;-78
2022/07/29 11:05:04;;;;;;;0.00;0.00;;;37.70;46.90;;;;;;5103594;28;20028;-78
2022/07/29 11:07:30;;;;;;;0.00;0.00;;;36.80;48.50;;;;;;5104811;28;20024;-78
2022/07/29 11:10:14;;;;;;;0.00;0.00;;;36.00;49.30;;;;;;5103948;28;20332;-79
2022/07/29 11:12:42;;;;;;;0.00;0.00;;;35.00;51.30;;;;;;5104694;28;20043;-78
2022/07/29 11:15:18;;;;;;;0.00;0.00;;;34.10;51.80;;;;;;5103431;28;20020;-79
2022/07/29 11:17:53;;;;;;;0.00;0.00;;;33.70;53.00;;;;;;5104940;28;20366;-77
2022/07/29 11:20:41;;;;;;;0.00;0.00;;;33.50;52.80;;;;;;5104529;28;20083;-78
2022/07/29 11:23:31;;;;;;;0.00;0.00;;;33.60;53.00;;;;;;5103536;28;20039;-77
2022/07/29 11:26:26;;;;;;;0.00;0.00;;;33.70;52.40;;;;;;5104755;28;20287;-78
2022/07/29 11:28:59;;;;;;;0.00;0.00;;;34.20;51.60;;;;;;5103585;28;20363;-77
2022/07/29 11:31:54;;;;;;;0.00;0.00;;;34.60;51.40;;;;;;5102962;28;20019;-77
2022/07/29 11:34:35;;;;;;;0.00;0.00;;;34.80;51.90;;;;;;5102918;28;20020;-79
2022/07/29 11:37:10;;;;;;;0.00;0.00;;;34.40;50.40;;;;;;5103289;28;20016;-77
2022/07/29 11:39:46;;;;;;;0.00;0.00;;;34.20;52.20;;;;;;5104598;28;20024;-79
2022/07/29 11:42:23;;;;;;;0.00;0.00;;;34.10;52.60;;;;;;5103014;28;20020;-76
2022/07/29 11:45:05;;;;;;;0.00;0.00;;;34.20;52.20;;;;;;5103024;28;20046;-79
2022/07/29 11:47:33;;;;;;;0.00;0.00;;;33.90;50.70;;;;;;5100363;28;20024;-77
2022/07/29 11:50:00;;;;;;;0.00;0.00;;;33.90;53.40;;;;;;5098896;28;20053;-76
2022/07/29 11:52:45;;;;;;;0.00;0.00;;;34.10;53.20;;;;;;5095115;28;20025;-77
2022/07/29 11:55:13;;;;;;;0.00;0.00;;;34.30;52.30;;;;;;5103354;28;20024;-77
2022/07/29 11:57:50;;;;;;;0.00;0.00;;;34.50;51.60;;;;;;5090170;28;20055;-76
2022/07/29 12:00:23;;;;;;;;;;;34.40;51.80;;;;;;5102045;28;20038;-76
2022/07/29 12:02:48;;;;;;;0.00;0.00;;;34.20;51.70;;;;;;5095249;28;19935;-76
2022/07/29 12:05:14;;;;;;;0.00;0.00;;;33.90;52.20;;;;;;5092714;28;20099;-77
2022/07/29 12:07:40;;;;;;;0.00;0.00;;;33.60;51.80;;;;;;5092776;28;20315;-75
2022/07/29 12:10:07;;;;;;;0.00;0.00;;;33.20;52.60;;;;;;5094215;28;20042;-76
2022/07/29 12:12:34;;;;;;;0.00;0.00;;;32.90;54.60;;;;;;5092434;28;20083;-76
2022/07/29 12:15:14;;;;;;;0.00;0.00;;;32.70;54.90;;;;;;5094922;28;20057;-75
2022/07/29 12:17:40;;;;;;;0.00;0.00;;;32.20;55.60;;;;;;5091034;28;20450;-74
2022/07/29 12:20:06;;;;;;;0.00;0.00;;;31.90;55.50;;;;;;5091632;28;20023;-75
2022/07/29 12:22:37;;;;;;;0.00;0.00;;;31.60;55.80;;;;;;5094450;28;20174;-74
2022/07/29 12:25:11;;;;;;;0.00;0.00;;;31.40;55.90;;;;;;5094784;28;20012;-76
2022/07/29 12:27:38;;;;;;;0.00;0.00;;;31.30;56.80;;;;;;5091751;28;20016;-74
2022/07/29 12:30:09;;;;;;;0.00;0.00;;;31.10;56.80;;;;;;5090953;28;20021;-75
2022/07/29 12:32:37;;;;;;;0.00;0.00;;;31.10;57.40;;;;;;5092617;28;20016;-74
2022/07/29 12:35:05;;;;;;;0.00;0.00;;;31.10;57.00;;;;;;5091383;28;20046;-74
2022/07/29 12:37:36;;;;;;;0.00;0.00;;;31.00;57.50;;;;;;5094523;28;20047;-74
2022/07/29 12:40:07;;;;;;;0.00;0.00;;;30.90;56.70;;;;;;5092338;28;20079;-74
2022/07/29 12:42:34;;;;;;;0.00;0.00;;;30.90;56.70;;;;;;5088203;28;20195;-74
2022/07/29 12:45:00;;;;;;;0.00;0.00;;;30.80;57.40;;;;;;5097803;28;20194;-72
2022/07/29 12:47:26;;;;;;;0.00;0.00;;;30.80;57.10;;;;;;5088643;28;20047;-74
2022/07/29 12:50:12;;;;;;;0.00;0.00;;;30.80;57.70;;;;;;5094615;28;20016;-74
2022/07/29 12:52:37;;;;;;;0.00;0.00;;;30.70;58.30;;;;;;5090726;28;20037;-73
2022/07/29 12:55:04;;;;;;;0.00;0.00;;;30.60;58.90;;;;;;5096116;28;20047;-74
2022/07/29 12:57:31;;;;;;;0.00;0.00;;;30.50;58.60;;;;;;5092964;28;20311;-75
2022/07/29 13:00:12;;;;;;;0.00;0.00;;;30.50;58.50;;;;;;5091352;28;20016;-75
2022/07/29 13:02:39;;;;;;;0.00;0.00;;;30.40;59.00;;;;;;5090189;28;20087;-72
2022/07/29 13:05:07;;;;;;;0.00;0.00;;;30.40;59.10;;;;;;5093004;28;20020;-72
2022/07/29 13:07:36;;;;;;;0.00;0.00;;;30.40;59.70;;;;;;5090490;28;20023;-73
2022/07/29 13:10:13;;;;;;;0.00;0.00;;;30.30;59.70;;;;;;5088880;28;20019;-73
2022/07/29 13:12:39;;;;;;;0.00;0.00;;;30.30;59.80;;;;;;5090857;28;20016;-73
2022/07/29 13:15:14;;;;;;;0.00;0.00;;;30.30;60.10;;;;;;5093972;28;20107;-74
2022/07/29 13:17:42;;;;;;;0.00;0.00;;;30.20;60.20;;;;;;5089566;28;20069;-72
2022/07/29 13:20:12;;;;;;;0.00;0.00;;;30.10;60.60;;;;;;5091905;28;20356;-73
2022/07/29 13:22:39;;;;;;;0.00;0.00;;;29.90;61.30;;;;;;5090201;28;20020;-73
2022/07/29 13:25:09;;;;;;;0.00;0.00;;;29.80;61.70;;;;;;5094693;28;20209;-72
2022/07/29 13:27:37;;;;;;;0.00;0.00;;;29.70;61.90;;;;;;5092592;28;20033;-74
2022/07/29 13:30:08;;;;;;;0.00;0.00;;;29.70;62.40;;;;;;5092281;28;20251;-73
2022/07/29 13:32:36;;;;;;;0.00;0.00;;;29.60;62.00;;;;;;5091031;28;20023;-73
2022/07/29 13:35:05;;;;;;;0.00;0.00;;;29.70;62.00;;;;;;5094519;28;20046;-79
2022/07/29 13:37:33;;;;;;;0.00;0.00;;;29.30;62.40;;;;;;5093528;28;20047;-80
2022/07/29 13:40:00;;;;;;;0.00;0.00;;;29.20;62.80;;;;;;5095136;28;20317;-79
2022/07/29 13:42:26;;;;;;;0.00;0.00;;;29.00;63.20;;;;;;5091362;28;20036;-77
2022/07/29 13:44:52;;;;;;;0.00;0.00;;;29.00;63.90;;;;;;5097085;28;20078;-70
2022/07/29 13:47:18;;;;;;;0.00;0.00;;;28.80;64.60;;;;;;5102520;28;20020;-71
2022/07/29 13:49:44;;;;;;;0.00;0.00;;;28.60;65.50;;;;;;5102328;28;20262;-71
2022/07/29 13:52:10;;;;;;;0.00;0.00;;;28.40;66.90;;;;;;5101288;28;20024;-74
2022/07/29 13:54:37;;;;;;;0.00;0.00;;;28.20;67.80;;;;;;5099080;28;20077;-72
2022/07/29 13:57:03;;;;;;;0.00;0.00;;;28.10;68.40;;;;;;5102180;28;20023;-71
2022/07/29 13:59:29;;;;;;;0.00;0.00;;;27.90;69.30;;;;;;5102235;28;20043;-71
2022/07/29 14:01:54;;;;;;;0.00;0.00;;;27.90;70.50;;;;;;5102524;28;20024;-72
2022/07/29 14:04:21;;;;;;;0.00;0.00;;;27.80;70.40;;;;;;5102480;28;20024;-71
2022/07/29 14:06:47;;;;;;;0.00;0.00;;;27.50;70.80;;;;;;5100910;28;20016;-71
2022/07/29 14:09:12;;;;;;;0.00;0.00;;;27.40;72.10;;;;;;5101181;28;20028;-70
2022/07/29 14:11:38;;;;;;;0.00;0.00;;;27.30;72.80;;;;;;5102217;28;20047;-70
2022/07/29 14:14:04;;;;;;;0.00;0.00;;;27.10;73.30;;;;;;5103299;28;20207;-71
2022/07/29 14:16:30;;;;;;;0.00;0.00;;;27.00;74.20;;;;;;5101915;28;20027;-70
2022/07/29 14:18:55;;;;;;;0.00;0.00;;;27.00;74.60;;;;;;5102266;28;20099;-71
2022/07/29 14:21:21;;;;;;;0.00;0.00;;;26.80;75.60;;;;;;5102450;28;20024;-71
2022/07/29 14:23:47;;;;;;;0.00;0.00;;;26.60;77.00;;;;;;5101685;28;20032;-72
2022/07/29 14:26:13;;;;;;;0.00;0.00;;;26.50;78.30;;;;;;5105158;28;20024;-72
2022/07/29 14:28:38;;;;;;;0.00;0.00;;;26.30;78.30;;;;;;5105583;28;20081;-70
2022/07/29 14:31:04;;;;;;;0.00;0.00;;;26.20;79.60;;;;;;5096012;28;20020;-71
2022/07/29 14:33:30;;;;;;;0.00;0.00;;;26.20;80.80;;;;;;5095477;28;20195;-71
2022/07/29 14:35:55;;;;;;;0.00;0.00;;;26.10;81.00;;;;;;5094722;28;20022;-72
2022/07/29 14:38:21;;;;;;;0.00;0.00;;;26.00;81.90;;;;;;5087514;28;20044;-69
2022/07/29 14:40:47;;;;;;;0.00;0.00;;;25.90;83.30;;;;;;5083479;28;20047;-69
2022/07/29 14:43:13;;;;;;;0.00;0.00;;;25.90;83.40;;;;;;5102105;28;20188;-70
2022/07/29 14:45:40;;;;;;;0.00;0.00;;;25.90;84.70;;;;;;5105339;28;20023;-70
2022/07/29 14:48:06;;;;;;;0.00;0.00;;;25.80;84.50;;;;;;5106261;28;20023;-68
2022/07/29 14:50:32;;;;;;;0.00;0.00;;;25.90;85.90;;;;;;5105564;28;20022;-72
2022/07/29 14:53:01;;;;;;;0.00;0.00;;;25.90;85.80;;;;;;5105981;28;20024;-70
2022/07/29 14:55:27;;;;;;;0.00;0.00;;;25.90;86.20;;;;;;5103046;28;20348;-70
2022/07/29 14:57:53;;;;;;;0.00;0.00;;;26.00;86.20;;;;;;5095026;28;20222;-70
2022/07/29 15:00:20;;;;;;;0.00;0.00;;;26.00;87.00;;;;;;5100298;28;20024;-69
2022/07/29 15:02:47;;;;;;;0.00;0.00;;;26.10;87.20;;;;;;5103505;28;20020;-73
2022/07/29 15:05:12;;;;;;;0.00;0.00;;;26.10;86.40;;;;;;5105121;28;20023;-76
2022/07/29 15:07:38;;;;;;;0.00;0.00;;;26.10;86.50;;;;;;5104832;28;20031;-75
2022/07/29 15:10:04;;;;;;;0.00;0.00;;;26.20;87.50;;;;;;5089360;28;20017;-76
2022/07/29 15:12:31;;;;;;;0.00;0.00;;;26.30;87.90;;;;;;5103852;28;20020;-75
2022/07/29 15:14:57;;;;;;;0.00;0.00;;;26.40;87.60;;;;;;5102618;28;20329;-75
2022/07/29 15:17:22;;;;;;;0.00;0.00;;;26.50;87.30;;;;;;5084732;28;20100;-75
2022/07/29 15:19:48;;;;;;;0.00;0.00;;;26.60;88.50;;;;;;5085326;28;20024;-76
2022/07/29 15:22:14;;;;;;;0.00;0.00;;;26.70;89.40;;;;;;5084874;28;20021;-75
2022/07/29 15:24:39;;;;;;;0.00;0.00;;;26.80;90.50;;;;;;5092218;28;20049;-76
2022/07/29 15:27:05;;;;;;;0.00;0.00;;;26.80;89.20;;;;;;5105145;28;20016;-75
2022/07/29 15:29:31;;;;;;;0.00;0.00;;;26.80;88.00;;;;;;5104642;28;20199;-77
2022/07/29 15:31:56;;;;;;;0.00;0.00;;;26.80;88.50;;;;;;5104140;28;20241;-76
2022/07/29 15:34:23;;;;;;;0.00;0.00;;;26.80;88.30;;;;;;5105031;28;20329;-76
2022/07/29 15:36:52;;;;;;;0.00;0.00;;;26.80;88.40;;;;;;5103299;28;20042;-76
2022/07/29 15:39:19;;;;;;;0.00;0.00;;;26.80;89.60;;;;;;5104322;28;20036;-75
2022/07/29 15:41:45;;;;;;;0.00;0.00;;;26.80;90.60;;;;;;5104325;28;20024;-75
2022/07/29 15:44:10;;;;;;;0.00;0.00;;;26.70;90.70;;;;;;5104062;28;20079;-75
2022/07/29 15:49:20;;;;;;;0.00;0.00;;;26.50;91.10;;;;;;5104541;28;20047;-76
2022/07/29 15:51:46;;;;;;;0.00;0.00;;;26.50;90.90;;;;;;5104099;28;20142;-78
2022/07/29 15:54:12;;;;;;;0.00;0.00;;;26.50;90.70;;;;;;5102937;28;20245;-77
2022/07/29 15:56:37;;;;;;;0.00;0.00;;;26.60;90.50;;;;;;5102683;28;20020;-77
2022/07/29 15:59:03;;;;;;;0.00;0.00;;;26.70;90.40;;;;;;5104420;28;20066;-77
2022/07/29 16:01:28;;;;;;;0.00;0.00;;;26.80;90.60;;;;;;5103132;28;20055;-76
2022/07/29 16:03:54;;;;;;;0.00;0.00;;;26.80;90.50;;;;;;5103596;28;20334;-77
2022/07/29 16:06:20;;;;;;;0.00;0.00;;;26.80;90.30;;;;;;5104226;28;20019;-76
2022/07/29 16:08:54;;;;;;;0.00;0.00;;;26.90;90.30;;;;;;5103830;28;20027;-75
2022/07/29 16:11:20;;;;;;;0.00;0.00;;;26.90;90.30;;;;;;5104326;28;20016;-76
2022/07/29 16:13:45;;;;;;;0.00;0.00;;;26.80;90.70;;;;;;5103651;28;20027;-76
2022/07/29 16:16:11;;;;;;;0.00;0.00;;;26.90;90.50;;;;;;5103820;28;20027;-76
2022/07/29 16:18:37;;;;;;;0.00;0.00;;;26.90;90.50;;;;;;5102569;28;20102;-77
2022/07/29 16:21:02;;;;;;;0.00;0.00;;;26.90;91.10;;;;;;5103896;28;20028;-76
2022/07/29 16:23:28;;;;;;;0.00;0.00;;;26.90;90.70;;;;;;5102299;28;20086;-77
2022/07/29 16:25:54;;;;;;;0.00;0.00;;;26.90;91.00;;;;;;5102971;28;20024;-78
2022/07/29 16:28:19;;;;;;;0.00;0.00;;;26.80;92.20;;;;;;5103865;28;20019;-76
2022/07/29 16:30:45;;;;;;;0.00;0.00;;;26.70;92.40;;;;;;5103596;28;20020;-76
2022/07/29 16:33:11;;;;;;;0.00;0.00;;;26.70;92.40;;;;;;5102699;28;20016;-76
2022/07/29 16:35:39;;;;;;;0.00;0.00;;;26.60;92.30;;;;;;5103380;28;20322;-75
2022/07/29 16:38:04;;;;;;;0.00;0.00;;;26.60;92.60;;;;;;5103886;28;20040;-80
2022/07/29 16:40:30;;;;;;;0.00;0.00;;;26.60;92.80;;;;;;5103766;28;20038;-78
2022/07/29 16:42:55;;;;;;;0.00;0.00;;;26.60;92.90;;;;;;5102234;28;20039;-79
2022/07/29 16:45:21;;;;;;;0.00;0.00;;;26.50;92.60;;;;;;5103426;28;20306;-77
2022/07/29 16:47:47;;;;;;;0.00;0.00;;;26.50;93.20;;;;;;5103489;28;20044;-77
2022/07/29 16:50:13;;;;;;;0.00;0.00;;;26.40;92.40;;;;;;5105019;28;20020;-78
2022/07/29 16:52:38;;;;;;;0.00;0.00;;;26.40;92.50;;;;;;5102974;28;20068;-78
2022/07/29 16:55:05;;;;;;;0.00;0.00;;;26.30;92.30;;;;;;5103684;28;20016;-79
2022/07/29 16:57:31;;;;;;;0.00;0.00;;;26.30;92.50;;;;;;5103182;28;20214;-76
2022/07/29 16:59:56;;;;;;;0.00;0.00;;;26.20;92.40;;;;;;5103174;28;20020;-78
2022/07/29 17:02:22;;;;;;;0.00;0.00;;;26.20;92.20;;;;;;5103464;28;20036;-78
2022/07/29 17:04:48;;;;;;;0.00;0.00;;;26.10;91.70;;;;;;5101548;28;20089;-79
2022/07/29 17:07:14;;;;;;;0.00;0.00;;;26.10;91.30;;;;;;5103058;28;20023;-79
2022/07/29 17:09:40;;;;;;;0.00;0.00;;;26.00;91.30;;;;;;5103160;28;20024;-78
2022/07/29 17:12:06;;;;;;;0.00;0.00;;;26.00;91.60;;;;;;5103099;28;20333;-79
2022/07/29 17:14:32;;;;;;;0.00;0.00;;;25.90;91.60;;;;;;5102900;28;20159;-79
2022/07/29 17:16:59;;;;;;;0.00;0.00;;;25.90;91.70;;;;;;5102561;28;20081;-78
2022/07/29 17:19:26;;;;;;;0.00;0.00;;;25.80;92.10;;;;;;5102553;28;20196;-78
2022/07/29 17:21:52;;;;;;;0.00;0.00;;;25.70;92.40;;;;;;5102230;28;20051;-77
2022/07/29 17:24:18;;;;;;;0.00;0.00;;;25.70;93.00;;;;;;5102778;28;20024;-77
2022/07/29 17:26:44;;;;;;;0.00;0.00;;;25.60;93.50;;;;;;5101231;28;20050;-78
2022/07/29 17:29:10;;;;;;;0.00;0.00;;;25.60;93.90;;;;;;5102906;28;20069;-79
2022/07/29 17:31:36;;;;;;;0.00;0.00;;;25.60;94.00;;;;;;5102215;28;20027;-79
2022/07/29 17:34:03;;;;;;;0.00;0.00;;;25.50;94.20;;;;;;5102272;28;20027;-79
2022/07/29 17:36:29;;;;;;;0.00;0.00;;;25.50;94.80;;;;;;5103131;28;20019;-79
2022/07/29 17:38:57;;;;;;;0.00;0.00;;;25.50;95.00;;;;;;5102693;28;20036;-78
2022/07/29 17:41:24;;;;;;;0.00;0.00;;;25.40;95.00;;;;;;5102648;28;20091;-79
2022/07/29 17:43:50;;;;;;;0.00;0.00;;;25.30;95.40;;;;;;5101180;28;21399;-78
2022/07/29 17:46:17;;;;;;;0.00;0.00;;;25.30;95.30;;;;;;5102127;28;20016;-79
2022/07/29 17:48:43;;;;;;;0.00;0.00;;;25.20;95.20;;;;;;5103021;28;20050;-78
2022/07/29 17:51:09;;;;;;;0.00;0.00;;;25.20;95.20;;;;;;5103183;28;20024;-78
2022/07/29 17:53:35;;;;;;;0.00;0.00;;;25.20;95.30;;;;;;5101597;28;20344;-78
2022/07/29 17:56:02;;;;;;;0.00;0.00;;;25.20;95.20;;;;;;5100728;28;20061;-76
2022/07/29 17:58:28;;;;;;;0.00;0.00;;;25.10;95.40;;;;;;5102378;28;20039;-77
2022/07/29 18:00:54;;;;;;;0.00;0.00;;;25.10;95.50;;;;;;5105630;28;20016;-77
2022/07/29 18:03:20;;;;;;;0.00;0.00;;;25.10;95.80;;;;;;5105687;28;20407;-77
2022/07/29 18:05:45;;;;;;;0.00;0.00;;;25.10;96.10;;;;;;5106337;28;20306;-78
2022/07/29 18:08:11;;;;;;;0.00;0.00;;;25.00;96.20;;;;;;5106869;28;20079;-78
2022/07/29 18:10:37;;;;;;;0.00;0.00;;;25.00;96.40;;;;;;5107107;28;20070;-78
2022/07/29 18:13:06;;;;;;;0.00;0.00;;;24.90;96.60;;;;;;5106455;28;20027;-80
2022/07/29 18:15:32;;;;;;;0.00;0.00;;;24.90;96.80;;;;;;5106029;28;20162;-79
2022/07/29 18:17:57;;;;;;;0.00;0.00;;;24.90;97.20;;;;;;5104294;28;20085;-80
2022/07/29 18:20:24;;;;;;;0.00;0.00;;;25.00;98.10;;;;;;5106301;28;20303;-76
2022/07/29 18:22:50;;;;;;;0.00;0.00;;;24.90;97.60;;;;;;5104590;28;20294;-74
2022/07/29 18:25:15;;;;;;;0.00;0.00;;;24.90;97.30;;;;;;5105401;28;20020;-73
2022/07/29 18:27:41;;;;;;;0.00;0.00;;;24.80;97.40;;;;;;5104534;28;20027;-73
2022/07/29 18:30:08;;;;;;;0.00;0.00;;;24.80;97.70;;;;;;5104232;28;20150;-71
2022/07/29 18:32:33;;;;;;;0.00;0.00;;;24.80;98.20;;;;;;5104821;28;20078;-73
2022/07/29 18:35:01;;;;;;;0.00;0.00;;;24.70;98.80;;;;;;5105135;28;20024;-73
2022/07/29 18:37:27;;;;;;;;;;;24.70;98.90;;;;;;5105958;28;20032;-74
2022/07/29 18:39:53;;;;;;;0.00;0.00;;;24.60;99.00;;;;;;5105611;28;19910;-74
2022/07/29 18:42:19;;;;;;;0.00;0.00;;;24.50;98.80;;;;;;5104757;28;20052;-73
2022/07/29 18:44:44;;;;;;;0.00;0.00;;;24.60;99.00;;;;;;5104427;28;20317;-71
2022/07/29 18:47:10;;;;;;;0.00;0.00;;;24.50;99.70;;;;;;5105673;28;20299;-71
2022/07/29 18:49:35;;;;;;;0.00;0.00;;;24.50;99.90;;;;;;5104680;28;20016;-74
2022/07/29 18:52:01;;;;;;;0.00;0.00;;;24.40;99.90;;;;;;5105240;28;20325;-73
2022/07/29 18:54:27;;;;;;;0.00;0.00;;;24.40;99.90;;;;;;5104284;28;20020;-73
2022/07/29 18:56:52;;;;;;;0.00;0.00;;;24.40;99.90;;;;;;5105120;28;20020;-72
2022/07/29 18:59:21;;;;;;;0.00;0.00;;;24.30;99.90;;;;;;5105134;28;20322;-75
2022/07/29 19:01:47;;;;;;;0.00;0.00;;;24.30;99.90;;;;;;5105300;28;20404;-72
2022/07/29 19:04:13;;;;;;;0.00;0.00;;;24.30;99.90;;;;;;5105134;28;20083;-73
2022/07/29 19:06:39;;;;;;;0.00;0.00;;;24.20;99.90;;;;;;5105491;28;20016;-73
2022/07/29 19:09:09;;;;;;;0.00;0.00;;;24.20;99.90;;;;;;5104890;28;20031;-75
2022/07/29 19:11:35;;;;;;;0.00;0.00;;;24.20;99.90;;;;;;5103684;28;20020;-71
2022/07/29 19:14:02;;;;;;;0.00;0.00;;;24.20;99.90;;;;;;5103697;28;20047;-72
2022/07/29 19:16:27;;;;;;;0.00;0.00;;;24.10;99.90;;;;;;5104086;28;20028;-70
2022/07/29 19:18:53;;;;;;;0.00;0.00;;;24.20;99.90;;;;;;5104757;28;20186;-73
2022/07/29 19:21:19;;;;;;;0.00;0.00;;;24.10;99.90;;;;;;5104113;28;20024;-74
2022/07/29 19:23:45;;;;;;;0.00;0.00;;;24.10;99.90;;;;;;5104036;28;20085;-72
2022/07/29 19:26:10;;;;;;;0.00;0.00;;;24.10;99.90;;;;;;5104687;28;20078;-72
2022/07/29 19:28:36;;;;;;;0.00;0.00;;;24.10;99.90;;;;;;5105210;28;20092;-72
2022/07/29 19:31:02;;;;;;;0.00;0.00;;;24.10;99.90;;;;;;5103279;28;20020;-72
2022/07/29 19:33:28;;;;;;;0.00;0.00;;;24.00;99.90;;;;;;5104460;28;20295;-74
2022/07/29 19:35:53;;;;;;;0.00;0.00;;;24.00;99.90;;;;;;5104206;28;20028;-73
2022/07/29 19:38:19;;;;;;;0.00;0.00;;;24.00;99.90;;;;;;5104828;28;20273;-73
2022/07/29 19:40:45;;;;;;;0.00;0.00;;;24.00;99.90;;;;;;5104977;28;20183;-72
2022/07/29 19:43:10;;;;;;;0.00;0.00;;;24.00;99.90;;;;;;5104274;28;20240;-72
2022/07/29 19:45:36;;;;;;;0.00;0.00;;;24.00;99.90;;;;;;5104386;28;20028;-72
2022/07/29 19:48:03;;;;;;;0.00;0.00;;;24.00;99.90;;;;;;5104446;28;20326;-72
2022/07/29 19:50:30;;;;;;;0.00;0.00;;;23.90;99.90;;;;;;5104809;28;20020;-72
2022/07/29 19:52:56;;;;;;;0.00;0.00;;;23.90;99.90;;;;;;5104250;28;20024;-73
2022/07/29 19:55:22;;;;;;;0.00;0.00;;;23.90;99.90;;;;;;5103111;28;20024;-73
2022/07/29 19:57:48;;;;;;;0.00;0.00;;;23.90;99.90;;;;;;5104612;28;20039;-73
2022/07/29 20:00:15;;;;;;;0.00;0.00;;;23.90;99.90;;;;;;5104172;28;20012;-73
2022/07/29 20:02:41;;;;;;;0.00;0.00;;;23.80;99.90;;;;;;5104436;28;20083;-74
2022/07/29 20:05:10;;;;;;;0.00;0.00;;;23.80;99.90;;;;;;5103680;28;20047;-75
2022/07/29 20:07:37;;;;;;;0.00;0.00;;;23.80;99.90;;;;;;5104264;28;20028;-74
2022/07/29 20:10:04;;;;;;;0.00;0.00;;;23.70;99.90;;;;;;5103767;28;20108;-74
2022/07/29 20:12:29;;;;;;;0.00;0.00;;;23.80;99.90;;;;;;5103172;28;20179;-75
2022/07/29 20:14:55;;;;;;;0.00;0.00;;;23.70;99.90;;;;;;5103338;28;20122;-75
2022/07/29 20:17:21;;;;;;;0.00;0.00;;;23.70;99.90;;;;;;5102491;28;20016;-73
2022/07/29 20:19:50;;;;;;;0.00;0.00;;;23.70;99.90;;;;;;5104246;28;20075;-74
2022/07/29 20:22:17;;;;;;;0.00;0.00;;;23.70;99.90;;;;;;5102935;28;20012;-74
2022/07/29 20:24:43;;;;;;;0.00;0.00;;;23.60;99.90;;;;;;5103882;28;20031;-74
2022/07/29 20:27:09;;;;;;;0.00;0.00;;;23.60;99.90;;;;;;5103529;28;20020;-73
2022/07/29 20:29:35;;;;;;;0.00;0.00;;;23.60;99.90;;;;;;5102804;28;20206;-73
2022/07/29 20:32:01;;;;;;;0.00;0.00;;;23.60;99.90;;;;;;5103212;28;20031;-74
2022/07/29 20:34:27;;;;;;;0.00;0.00;;;23.50;99.90;;;;;;5103814;28;20194;-72
2022/07/29 20:36:52;;;;;;;0.00;0.00;;;23.50;99.90;;;;;;5102420;28;20016;-73
2022/07/29 20:39:19;;;;;;;0.00;0.00;;;23.50;99.90;;;;;;5102982;28;20112;-73
2022/07/29 20:41:46;;;;;;;0.00;0.00;;;23.50;99.90;;;;;;5102727;28;20095;-74
2022/07/29 20:44:12;;;;;;;0.00;0.00;;;23.40;99.90;;;;;;5101959;28;20158;-74
2022/07/29 20:46:40;;;;;;;0.00;0.00;;;23.40;99.90;;;;;;5103776;28;20024;-74
2022/07/29 20:49:06;;;;;;;0.00;0.00;;;23.40;99.90;;;;;;5103087;28;20283;-74
2022/07/29 20:51:33;;;;;;;0.00;0.00;;;23.40;99.90;;;;;;5103572;28;20397;-74
2022/07/29 20:53:59;;;;;;;0.00;0.00;;;23.30;99.90;;;;;;5101715;28;20308;-74
2022/07/29 20:56:25;;;;;;;0.00;0.00;;;23.30;99.90;;;;;;5103191;28;20069;-73
2022/07/29 20:58:51;;;;;;;0.00;0.00;;;23.20;99.90;;;;;;5103441;28;20020;-73
2022/07/29 21:01:17;;;;;;;0.00;0.00;;;23.20;99.90;;;;;;5102929;28;20251;-74
2022/07/29 21:03:42;;;;;;;0.00;0.00;;;23.20;99.90;;;;;;5103442;28;20020;-74
2022/07/29 21:06:08;;;;;;;0.00;0.00;;;23.20;99.90;;;;;;5102984;28;20028;-74
2022/07/29 21:08:34;;;;;;;0.00;0.00;;;23.20;99.90;;;;;;5103441;28;20027;-73
2022/07/29 21:11:00;;;;;;;0.00;0.00;;;23.10;99.90;;;;;;5102867;28;20137;-74
2022/07/29 21:13:26;;;;;;;0.00;0.00;;;23.10;99.90;;;;;;5102984;28;20298;-73
2022/07/29 21:15:56;;;;;;;0.00;0.00;;;23.00;99.90;;;;;;5101676;28;20123;-73
2022/07/29 21:18:33;;;;;;;0.00;0.00;;;23.00;99.90;;;;;;5102856;28;20088;-74
2022/07/29 21:20:59;;;;;;;0.00;0.00;;;23.00;99.90;;;;;;5103161;28;20012;-79
2022/07/29 21:23:26;;;;;;;0.00;0.00;;;23.00;99.90;;;;;;5103422;28;20057;-74
2022/07/29 21:25:53;;;;;;;0.00;0.00;;;23.00;99.90;;;;;;5102814;28;20019;-73
2022/07/29 21:28:25;;;;;;;0.00;0.00;;;23.00;99.90;;;;;;5103207;28;20043;-75
2022/07/29 21:30:52;;;;;;;0.00;0.00;;;23.00;99.90;;;;;;5103858;28;20066;-74
2022/07/29 21:33:18;;;;;;;0.00;0.00;;;23.00;99.90;;;;;;5103332;28;20083;-74
2022/07/29 21:35:43;;;;;;;0.00;0.00;;;23.00;99.90;;;;;;5103567;28;20024;-74
2022/07/29 21:38:09;;;;;;;0.00;0.00;;;23.00;99.90;;;;;;5103322;28;20369;-75
2022/07/29 21:40:35;;;;;;;0.00;0.00;;;23.00;99.90;;;;;;5103550;28;20024;-74
2022/07/29 21:43:00;;;;;;;0.00;0.00;;;23.00;99.90;;;;;;5101973;28;20031;-82
2022/07/29 21:45:26;;;;;;;0.00;0.00;;;22.90;99.90;;;;;;5101923;28;20019;-74
2022/07/29 21:47:51;;;;;;;0.00;0.00;;;22.90;99.90;;;;;;5102836;28;20298;-73
2022/07/29 21:50:17;;;;;;;0.00;0.00;;;22.90;99.90;;;;;;5102700;28;20016;-74
2022/07/29 21:52:43;;;;;;;0.00;0.00;;;22.90;99.90;;;;;;5101573;28;20085;-73
2022/07/29 21:55:09;;;;;;;0.00;0.00;;;22.90;99.90;;;;;;5102163;28;20028;-74
2022/07/29 21:57:34;;;;;;;0.00;0.00;;;22.90;99.90;;;;;;5102688;28;20028;-73
2022/07/29 22:00:00;;;;;;;0.00;0.00;;;22.80;99.90;;;;;;5102548;28;20024;-74
2022/07/29 22:02:26;;;;;;;0.00;0.00;;;22.80;99.90;;;;;;5102520;28;20024;-74
2022/07/29 22:04:51;;;;;;;0.00;0.00;;;22.80;99.90;;;;;;5101084;28;20143;-74
2022/07/29 22:07:17;;;;;;;0.00;0.00;;;22.80;99.90;;;;;;5100948;28;20020;-74
2022/07/29 22:09:42;;;;;;;0.00;0.00;;;22.80;99.90;;;;;;5101577;28;20016;-74
2022/07/29 22:12:09;;;;;;;0.00;0.00;;;22.80;99.90;;;;;;5102046;28;20070;-75
2022/07/29 22:14:34;;;;;;;0.00;0.00;;;22.80;99.90;;;;;;5102745;28;20295;-74
2022/07/29 22:17:00;;;;;;;0.00;0.00;;;22.80;99.90;;;;;;5102558;28;20020;-74
2022/07/29 22:19:26;;;;;;;0.00;0.00;;;22.80;99.90;;;;;;5102408;28;20028;-75
2022/07/29 22:21:51;;;;;;;0.00;0.00;;;22.80;99.90;;;;;;5099283;28;20171;-74
2022/07/29 22:24:17;;;;;;;0.00;0.00;;;22.80;99.90;;;;;;5087417;28;20051;-78
2022/07/29 22:26:42;;;;;;;0.00;0.00;;;22.70;99.90;;;;;;5090876;28;20016;-74
2022/07/29 22:29:10;;;;;;;0.00;0.00;;;22.70;99.90;;;;;;5089627;28;20354;-75
2022/07/29 22:31:36;;;;;;;0.00;0.00;;;22.70;99.90;;;;;;5089123;28;20016;-73
2022/07/29 22:34:01;;;;;;;0.00;0.00;;;22.70;99.90;;;;;;5090624;28;20016;-74
2022/07/29 22:36:27;;;;;;;0.00;0.00;;;22.70;99.90;;;;;;5095883;28;20024;-74
2022/07/29 22:38:52;;;;;;;0.00;0.00;;;22.70;99.90;;;;;;5100528;28;20272;-73